ΕΜΥ, Εθνική Μετεωρολογική Υπηρεσία - Δελτία Καιρού, Προγνώσεις

ΑΕΡΟΝΑΥΤΙΛΙΑ

GREEK AIRPORTS CODES

LGSR 121850Z 17009KT 9999 FEW015 SCT025 21/20 Q1012=

EUROPEAN AIRPORTS CODES

EHAM 121855Z 17016KT 9999 FEW018 BKN021 05/03 Q0996 NOSIG=